Time;durP1;ratioP1;P1;durP2;ratioP2;P2;SDS_P1;SDS_P2;PMS_P1;PMS_P2;Temp;Humidity;BMP_temperature;BMP_pressure;BME280_temperature;BME280_humidity;BME280_pressure;Samples;Min_cycle;Max_cycle;Signal;HPM_P1;HPM_P2
2022/03/09 00:02:09;;;;;;;35.72;19.02;;;;;;;;;;6268785;28;20053;-70
2022/03/09 00:05:11;;;;;;;34.42;18.73;;;;;;;;;;6264164;28;20049;-70
2022/03/09 00:08:12;;;;;;;33.17;18.48;;;;;;;;;;6261270;28;20095;-70
2022/03/09 00:11:14;;;;;;;30.73;17.35;;;;;;;;;;6263341;28;20053;-70
2022/03/09 00:14:17;;;;;;;38.75;18.48;;;;;;;;;;6268425;28;20044;-69
2022/03/09 00:17:18;;;;;;;35.95;18.38;;;;;;;;;;6273025;28;20123;-70
2022/03/09 00:20:20;;;;;;;30.00;16.75;;;;;;;;;;6272004;28;20504;-70
2022/03/09 00:23:22;;;;;;;31.63;18.00;;;;;;;;;;6267537;28;20077;-70
2022/03/09 00:26:24;;;;;;;32.70;18.63;;;;;;;;;;6271136;28;20040;-70
2022/03/09 00:29:26;;;;;;;35.97;18.15;;;;;;;;;;6281902;28;20036;-70
2022/03/09 00:32:28;;;;;;;30.63;16.15;;;;;;;;;;6275797;28;20610;-70
2022/03/09 00:35:30;;;;;;;34.00;18.00;;;;;;;;;;6273288;28;20053;-70
2022/03/09 00:38:31;;;;;;;33.63;18.20;;;;;;;;;;6267034;28;20099;-70
2022/03/09 00:41:33;;;;;;;32.53;17.25;;;;;;;;;;6263958;28;20153;-69
2022/03/09 00:44:36;;;;;;;30.45;17.02;;;;;;;;;;6264578;28;20134;-69
2022/03/09 00:47:37;;;;;;;29.85;17.65;;;;;;;;;;6260182;28;20068;-70
2022/03/09 00:50:39;;;;;;;29.80;17.17;;;;;;;;;;6272664;28;20076;-70
2022/03/09 00:53:41;;;;;;;32.97;17.55;;;;;;;;;;6272405;28;20057;-70
2022/03/09 00:56:42;;;;;;;30.92;17.75;;;;;;;;;;6269472;28;20049;-69
2022/03/09 00:59:45;;;;;;;30.17;17.83;;;;;;;;;;6265863;28;20178;-69
2022/03/09 01:02:48;;;;;;;30.42;17.58;;;;;;;;;;6264866;28;20073;-69
2022/03/09 01:05:49;;;;;;;35.80;17.45;;;;;;;;;;6261817;28;20136;-70
2022/03/09 01:08:51;;;;;;;30.13;17.80;;;;;;;;;;6273521;28;20175;-70
2022/03/09 01:11:52;;;;;;;33.15;18.58;;;;;;;;;;6271934;28;20036;-70
2022/03/09 01:14:55;;;;;;;31.17;18.40;;;;;;;;;;6271794;28;20139;-70
2022/03/09 01:17:57;;;;;;;29.25;17.55;;;;;;;;;;6267735;28;20492;-70
2022/03/09 01:20:59;;;;;;;31.73;17.77;;;;;;;;;;6269226;28;20037;-69
2022/03/09 01:24:00;;;;;;;32.60;18.67;;;;;;;;;;6264853;28;20131;-69
2022/03/09 01:27:02;;;;;;;31.45;17.40;;;;;;;;;;6282724;28;20120;-70
2022/03/09 01:30:06;;;;;;;32.20;17.50;;;;;;;;;;6277517;28;20049;-70
2022/03/09 01:33:09;;;;;;;31.08;17.40;;;;;;;;;;6274015;28;20592;-69
2022/03/09 01:36:10;;;;;;;29.15;16.42;;;;;;;;;;6266652;28;20504;-68
2022/03/09 01:39:12;;;;;;;37.20;18.20;;;;;;;;;;6265290;28;20128;-70
2022/03/09 01:42:13;;;;;;;33.45;18.40;;;;;;;;;;6259252;28;20076;-68
2022/03/09 01:45:18;;;;;;;31.60;18.75;;;;;;;;;;6257607;28;20248;-68
2022/03/09 01:48:20;;;;;;;35.72;19.50;;;;;;;;;;6270773;28;20040;-69
2022/03/09 01:51:21;;;;;;;36.33;18.45;;;;;;;;;;6272191;28;20133;-69
2022/03/09 01:54:23;;;;;;;34.63;18.20;;;;;;;;;;6264544;28;20049;-69
2022/03/09 01:57:25;;;;;;;32.60;18.40;;;;;;;;;;6267796;28;20085;-69
2022/03/09 02:00:27;;;;;;;34.60;18.83;;;;;;;;;;6284049;28;20076;-70
2022/03/09 02:03:29;;;;;;;30.83;18.25;;;;;;;;;;6276360;28;20079;-69
2022/03/09 02:06:32;;;;;;;33.88;19.55;;;;;;;;;;6277962;28;20045;-69
2022/03/09 02:09:41;;;;;;;35.00;19.17;;;;;;;;;;6271671;28;20067;-70
2022/03/09 02:12:43;;;;;;;33.35;18.42;;;;;;;;;;6268523;28;20060;-70
2022/03/09 02:15:46;;;;;;;32.50;17.20;;;;;;;;;;6266320;28;20127;-70
2022/03/09 02:18:47;;;;;;;36.58;18.88;;;;;;;;;;6260044;28;20046;-70
2022/03/09 02:21:49;;;;;;;33.80;18.33;;;;;;;;;;6257662;28;20041;-70
2022/03/09 02:24:53;;;;;;;32.25;18.15;;;;;;;;;;6251319;28;20167;-69
2022/03/09 02:27:54;;;;;;;31.10;17.98;;;;;;;;;;6269606;28;20552;-71
2022/03/09 02:30:56;;;;;;;30.30;17.63;;;;;;;;;;6268023;28;20041;-70
2022/03/09 02:33:57;;;;;;;31.13;17.80;;;;;;;;;;6271832;28;20131;-70
2022/03/09 02:36:59;;;;;;;35.72;19.92;;;;;;;;;;6284981;28;20127;-70
2022/03/09 02:40:02;;;;;;;31.90;18.80;;;;;;;;;;6277864;28;20179;-70
2022/03/09 02:43:03;;;;;;;31.10;18.40;;;;;;;;;;6277204;28;20119;-70
2022/03/09 02:46:05;;;;;;;32.05;18.90;;;;;;;;;;6274193;28;20044;-70
2022/03/09 02:49:07;;;;;;;31.98;19.13;;;;;;;;;;6265875;28;20099;-72
2022/03/09 02:52:08;;;;;;;37.20;19.85;;;;;;;;;;6260700;28;20492;-71
2022/03/09 02:55:12;;;;;;;32.67;19.60;;;;;;;;;;6256928;28;20143;-72
2022/03/09 02:58:14;;;;;;;37.53;19.27;;;;;;;;;;6258997;28;20147;-72
2022/03/09 03:01:16;;;;;;;31.75;17.92;;;;;;;;;;6254716;28;20041;-69
2022/03/09 03:04:18;;;;;;;34.13;18.13;;;;;;;;;;6249605;28;20123;-70
2022/03/09 03:07:19;;;;;;;33.40;19.17;;;;;;;;;;6258376;28;20053;-71
2022/03/09 03:10:22;;;;;;;31.17;18.00;;;;;;;;;;6282475;28;20170;-71
2022/03/09 03:13:24;;;;;;;33.05;17.73;;;;;;;;;;6284693;28;20090;-74
2022/03/09 03:16:25;;;;;;;33.22;18.00;;;;;;;;;;6273366;28;20125;-69
2022/03/09 03:19:27;;;;;;;35.67;18.15;;;;;;;;;;6275003;28;20504;-77
2022/03/09 03:22:29;;;;;;;35.35;18.08;;;;;;;;;;6264613;28;20050;-83
2022/03/09 03:25:31;;;;;;;31.00;17.77;;;;;;;;;;6268806;28;20520;-78
2022/03/09 03:28:33;;;;;;;35.08;18.45;;;;;;;;;;6264927;28;20089;-72
2022/03/09 03:31:35;;;;;;;37.08;19.58;;;;;;;;;;6263236;28;20115;-75
2022/03/09 03:34:36;;;;;;;34.97;18.00;;;;;;;;;;6257916;28;20129;-75
2022/03/09 03:37:40;;;;;;;32.58;18.20;;;;;;;;;;6255039;28;20050;-74
2022/03/09 03:40:44;;;;;;;37.58;18.95;;;;;;;;;;6250154;28;20088;-77
2022/03/09 03:43:45;;;;;;;34.10;18.05;;;;;;;;;;6256136;28;20094;-75
2022/03/09 03:46:47;;;;;;;38.03;18.85;;;;;;;;;;6277782;28;20073;-76
2022/03/09 03:49:48;;;;;;;35.60;19.10;;;;;;;;;;6282230;28;20496;-75
2022/03/09 03:52:50;;;;;;;34.08;18.02;;;;;;;;;;6281845;28;20260;-76
2022/03/09 03:55:53;;;;;;;32.75;20.00;;;;;;;;;;6280785;28;20099;-75
2022/03/09 03:58:55;;;;;;;33.20;19.60;;;;;;;;;;6277230;28;20128;-75
2022/03/09 04:01:56;;;;;;;37.22;20.10;;;;;;;;;;6273274;28;20403;-77
2022/03/09 04:04:58;;;;;;;39.28;19.48;;;;;;;;;;6272240;28;20559;-74
2022/03/09 04:07:59;;;;;;;35.55;19.67;;;;;;;;;;6265847;28;20049;-74
2022/03/09 04:11:02;;;;;;;34.25;19.10;;;;;;;;;;6265504;28;20186;-74
2022/03/09 04:14:04;;;;;;;40.20;19.13;;;;;;;;;;6261619;28;20140;-74
2022/03/09 04:17:06;;;;;;;31.95;18.95;;;;;;;;;;6261141;28;20045;-75
2022/03/09 04:20:08;;;;;;;35.70;20.65;;;;;;;;;;6277216;28;20448;-75
2022/03/09 04:23:10;;;;;;;41.25;19.80;;;;;;;;;;6265665;28;20094;-75
2022/03/09 04:26:13;;;;;;;36.55;19.52;;;;;;;;;;6269543;28;20086;-74
2022/03/09 04:29:14;;;;;;;36.28;20.23;;;;;;;;;;6274556;28;20483;-75
2022/03/09 04:32:16;;;;;;;39.67;19.75;;;;;;;;;;6281123;28;20055;-76
2022/03/09 04:35:18;;;;;;;37.35;19.90;;;;;;;;;;6272619;28;20136;-75
2022/03/09 04:38:19;;;;;;;39.10;20.63;;;;;;;;;;6274892;28;20121;-76
2022/03/09 04:41:22;;;;;;;39.15;20.35;;;;;;;;;;6272764;28;20158;-75
2022/03/09 04:44:24;;;;;;;37.33;20.80;;;;;;;;;;6272611;28;20456;-75
2022/03/09 04:47:26;;;;;;;36.88;20.80;;;;;;;;;;6264430;28;20129;-78
2022/03/09 04:50:28;;;;;;;39.35;21.52;;;;;;;;;;6262812;28;20171;-74
2022/03/09 04:53:29;;;;;;;39.20;21.17;;;;;;;;;;6269004;28;20076;-76
2022/03/09 04:56:32;;;;;;;39.33;20.33;;;;;;;;;;6279861;28;20560;-76
2022/03/09 04:59:34;;;;;;;34.33;20.63;;;;;;;;;;6272546;28;20446;-76
2022/03/09 05:02:35;;;;;;;47.22;21.40;;;;;;;;;;6268640;28;20041;-76
2022/03/09 05:05:37;;;;;;;39.15;20.75;;;;;;;;;;6263336;28;20535;-76
2022/03/09 05:08:38;;;;;;;43.08;20.23;;;;;;;;;;6285469;28;20511;-77
2022/03/09 05:11:41;;;;;;;45.80;21.05;;;;;;;;;;6277447;28;20052;-75
2022/03/09 05:14:43;;;;;;;39.38;21.65;;;;;;;;;;6272993;28;20075;-76
2022/03/09 05:17:45;;;;;;;37.97;19.65;;;;;;;;;;6267774;28;20049;-76
2022/03/09 05:20:47;;;;;;;41.33;20.33;;;;;;;;;;6269554;28;20045;-78
2022/03/09 05:23:48;;;;;;;34.55;19.63;;;;;;;;;;6262368;28;20433;-77
2022/03/09 05:26:51;;;;;;;36.35;20.15;;;;;;;;;;6259727;28;20063;-77
2022/03/09 05:29:53;;;;;;;38.22;20.35;;;;;;;;;;6280896;28;20224;-78
2022/03/09 05:32:56;;;;;;;35.45;19.17;;;;;;;;;;6275008;28;20174;-75
2022/03/09 05:35:57;;;;;;;39.20;20.50;;;;;;;;;;6270020;28;20049;-76
2022/03/09 05:38:59;;;;;;;35.45;19.15;;;;;;;;;;6270580;28;20063;-77
2022/03/09 05:42:02;;;;;;;36.05;20.50;;;;;;;;;;6262182;28;20072;-75
2022/03/09 05:45:05;;;;;;;38.05;19.95;;;;;;;;;;6261374;28;20501;-75
2022/03/09 05:48:06;;;;;;;45.55;20.10;;;;;;;;;;6272534;28;20127;-77
2022/03/09 05:51:08;;;;;;;36.67;20.08;;;;;;;;;;6275087;28;20240;-76
2022/03/09 05:54:09;;;;;;;44.00;21.75;;;;;;;;;;6269124;28;20471;-76
2022/03/09 05:57:12;;;;;;;49.88;20.85;;;;;;;;;;6271785;28;20049;-75
2022/03/09 06:00:14;;;;;;;41.53;20.58;;;;;;;;;;6264934;28;20635;-74
2022/03/09 06:03:16;;;;;;;36.60;19.88;;;;;;;;;;6273685;28;20119;-76
2022/03/09 06:06:18;;;;;;;33.00;19.27;;;;;;;;;;6281382;28;20131;-75
2022/03/09 06:09:19;;;;;;;37.92;19.90;;;;;;;;;;6276649;28;20085;-75
2022/03/09 06:12:22;;;;;;;43.17;19.75;;;;;;;;;;6273269;28;20045;-71
2022/03/09 06:15:24;;;;;;;37.38;18.75;;;;;;;;;;6267982;28;20139;-72
2022/03/09 06:18:25;;;;;;;37.17;20.52;;;;;;;;;;6267048;28;20045;-71
2022/03/09 06:21:27;;;;;;;39.15;20.20;;;;;;;;;;6258897;28;20128;-69
2022/03/09 06:24:28;;;;;;;42.97;21.48;;;;;;;;;;6255676;28;20051;-70
2022/03/09 06:27:39;;;;;;;39.53;20.85;;;;;;;;;;6261724;28;20048;-70
2022/03/09 06:30:41;;;;;;;43.08;21.38;;;;;;;;;;6261630;28;20118;-71
2022/03/09 06:33:42;;;;;;;36.63;20.02;;;;;;;;;;6264186;28;20096;-71
2022/03/09 06:36:45;;;;;;;46.28;21.30;;;;;;;;;;6260828;28;20049;-73
2022/03/09 06:39:46;;;;;;;44.47;19.40;;;;;;;;;;6275313;28;20197;-72
2022/03/09 06:42:49;;;;;;;35.88;19.63;;;;;;;;;;6275879;28;20073;-72
2022/03/09 06:45:51;;;;;;;40.35;21.13;;;;;;;;;;6264735;28;20179;-73
2022/03/09 06:48:53;;;;;;;45.35;20.33;;;;;;;;;;6270935;28;20072;-72
2022/03/09 06:51:54;;;;;;;37.53;19.80;;;;;;;;;;6266385;28;20048;-72
2022/03/09 06:54:56;;;;;;;34.22;20.55;;;;;;;;;;6264454;28;20128;-72
2022/03/09 06:57:59;;;;;;;41.22;21.23;;;;;;;;;;6259207;28;20045;-72
2022/03/09 07:01:00;;;;;;;38.08;21.02;;;;;;;;;;6252955;28;20369;-72
2022/03/09 07:04:02;;;;;;;39.10;22.10;;;;;;;;;;6251159;28;20504;-72
2022/03/09 07:07:04;;;;;;;41.58;22.73;;;;;;;;;;6256329;28;20052;-73
2022/03/09 07:10:10;;;;;;;43.50;22.45;;;;;;;;;;6264110;28;20504;-73
2022/03/09 07:13:13;;;;;;;36.70;21.85;;;;;;;;;;6268275;28;20059;-71
2022/03/09 07:16:15;;;;;;;41.83;23.02;;;;;;;;;;6281477;28;20056;-72
2022/03/09 07:19:16;;;;;;;41.38;23.00;;;;;;;;;;6273220;28;20128;-72
2022/03/09 07:22:18;;;;;;;46.63;28.02;;;;;;;;;;6268081;28;24547;-72
2022/03/09 07:25:19;;;;;;;45.33;29.00;;;;;;;;;;6271141;28;24574;-71
2022/03/09 07:28:22;;;;;;;42.85;25.10;;;;;;;;;;6266856;28;20190;-72
2022/03/09 07:31:24;;;;;;;40.15;23.05;;;;;;;;;;6268368;28;20204;-72
2022/03/09 07:34:26;;;;;;;41.25;23.45;;;;;;;;;;6262793;28;20053;-71
2022/03/09 07:37:27;;;;;;;48.17;25.42;;;;;;;;;;6263078;28;20045;-70
2022/03/09 07:40:29;;;;;;;40.92;23.63;;;;;;;;;;6259386;28;20565;-69
2022/03/09 07:43:32;;;;;;;45.30;25.65;;;;;;;;;;6259010;28;20657;-71
2022/03/09 07:46:33;;;;;;;43.97;25.52;;;;;;;;;;6261916;28;20136;-71
2022/03/09 07:49:37;;;;;;;41.22;24.38;;;;;;;;;;6283269;28;20150;-70
2022/03/09 07:52:39;;;;;;;46.63;24.42;;;;;;;;;;6282198;28;20495;-71
2022/03/09 07:55:41;;;;;;;42.03;24.63;;;;;;;;;;6282196;28;20041;-70
2022/03/09 07:58:44;;;;;;;43.03;24.63;;;;;;;;;;6278574;28;20053;-71
2022/03/09 08:01:45;;;;;;;41.90;25.33;;;;;;;;;;6273929;28;20049;-72
2022/03/09 08:04:47;;;;;;;46.30;25.45;;;;;;;;;;6271125;28;20133;-69
2022/03/09 08:07:48;;;;;;;42.05;25.83;;;;;;;;;;6268727;28;20057;-71
2022/03/09 08:10:50;;;;;;;43.15;26.17;;;;;;;;;;6266028;28;20041;-69
2022/03/09 08:13:53;;;;;;;45.70;26.33;;;;;;;;;;6261905;28;20076;-69
2022/03/09 08:16:55;;;;;;;46.17;26.33;;;;;;;;;;6259348;28;20041;-70
2022/03/09 08:19:56;;;;;;;42.72;25.80;;;;;;;;;;6255375;28;20494;-71
2022/03/09 08:22:58;;;;;;;49.13;26.45;;;;;;;;;;6260013;28;20087;-70
2022/03/09 08:25:59;;;;;;;44.90;26.45;;;;;;;;;;6271126;28;20553;-70
2022/03/09 08:29:04;;;;;;;47.83;27.02;;;;;;;;;;6279485;28;20054;-70
2022/03/09 08:32:05;;;;;;;48.00;26.75;;;;;;;;;;6282721;28;20053;-70
2022/03/09 08:35:08;;;;;;;46.63;26.70;;;;;;;;;;6275321;28;20131;-70
2022/03/09 08:38:09;;;;;;;48.17;28.23;;;;;;;;;;6267942;28;20131;-72
2022/03/09 08:41:11;;;;;;;52.13;28.23;;;;;;;;;;6271547;28;20255;-70
2022/03/09 08:44:15;;;;;;;48.38;27.88;;;;;;;;;;6267084;28;20173;-72
2022/03/09 08:47:17;;;;;;;45.45;26.90;;;;;;;;;;6267042;28;20053;-72
2022/03/09 08:50:19;;;;;;;49.38;28.92;;;;;;;;;;6261104;28;20073;-71
2022/03/09 08:53:21;;;;;;;50.05;27.77;;;;;;;;;;6260307;28;20087;-71
2022/03/09 08:56:23;;;;;;;49.97;34.60;;;;;;;;;;6255015;28;20055;-72
2022/03/09 08:59:25;;;;;;;45.85;29.48;;;;;;;;;;6269700;28;20049;-72
2022/03/09 09:02:27;;;;;;;49.58;30.15;;;;;;;;;;6268739;28;20138;-71
2022/03/09 09:05:29;;;;;;;47.08;29.23;;;;;;;;;;6265670;28;20080;-71
2022/03/09 09:08:31;;;;;;;51.50;30.17;;;;;;;;;;6281398;28;20044;-72
2022/03/09 09:11:32;;;;;;;45.25;28.60;;;;;;;;;;6278208;28;20040;-71
2022/03/09 09:14:35;;;;;;;43.67;27.25;;;;;;;;;;6272689;28;20192;-71
2022/03/09 09:17:37;;;;;;;35.72;24.55;;;;;;;;;;6272429;28;20128;-72
2022/03/09 09:20:39;;;;;;;39.90;25.02;;;;;;;;;;6269610;28;20073;-72
2022/03/09 09:23:41;;;;;;;42.45;25.65;;;;;;;;;;6267111;28;20136;-72
2022/03/09 09:26:42;;;;;;;39.13;25.75;;;;;;;;;;6265193;28;20124;-73
2022/03/09 09:29:45;;;;;;;44.92;27.00;;;;;;;;;;6259801;28;20115;-71
2022/03/09 09:32:47;;;;;;;46.05;27.85;;;;;;;;;;6266542;28;20086;-72
2022/03/09 09:35:50;;;;;;;42.45;27.38;;;;;;;;;;6273784;28;20052;-72
2022/03/09 09:38:51;;;;;;;38.17;26.20;;;;;;;;;;6270197;28;20401;-73
2022/03/09 09:41:53;;;;;;;41.55;27.58;;;;;;;;;;6266570;28;20049;-72
2022/03/09 09:44:57;;;;;;;45.85;27.13;;;;;;;;;;6264170;28;20541;-72
2022/03/09 09:47:58;;;;;;;;;;;;;;;;;;6275921;28;20126;-70
2022/03/09 09:51:00;;;;;;;41.05;28.00;;;;;;;;;;6277862;28;19977;-72
2022/03/09 09:54:02;;;;;;;40.85;27.52;;;;;;;;;;6273365;28;20127;-72
2022/03/09 09:57:04;;;;;;;42.47;29.25;;;;;;;;;;6268832;28;20068;-76
2022/03/09 10:00:09;;;;;;;97.05;62.15;;;;;;;;;;6268378;28;20092;-70
2022/03/09 10:03:11;;;;;;;53.00;35.78;;;;;;;;;;6262792;28;20049;-70
2022/03/09 10:06:13;;;;;;;50.85;35.72;;;;;;;;;;6255331;28;20509;-71
2022/03/09 10:09:14;;;;;;;76.80;50.53;;;;;;;;;;6272292;28;20279;-72
2022/03/09 10:12:26;;;;;;;62.35;38.67;;;;;;;;;;6269832;28;20045;-73
2022/03/09 10:15:29;;;;;;;50.97;34.63;;;;;;;;;;6267776;28;20056;-71
2022/03/09 10:18:31;;;;;;;39.67;30.17;;;;;;;;;;6266190;28;20041;-71
2022/03/09 10:21:36;;;;;;;50.33;36.40;;;;;;;;;;6257607;28;20045;-71
2022/03/09 10:24:38;;;;;;;54.10;36.97;;;;;;;;;;6254958;28;20116;-72
2022/03/09 10:27:41;;;;;;;42.47;31.52;;;;;;;;;;6269219;28;20134;-71
2022/03/09 10:30:44;;;;;;;45.08;30.58;;;;;;;;;;6270834;28;20133;-70
2022/03/09 10:33:46;;;;;;;45.73;29.97;;;;;;;;;;6266453;28;20097;-70
2022/03/09 10:36:55;;;;;;;40.22;29.35;;;;;;;;;;6261219;28;20061;-70
2022/03/09 10:40:09;;;;;;;40.72;27.52;;;;;;;;;;6255701;28;20045;-70
2022/03/09 10:43:12;;;;;;;38.67;28.85;;;;;;;;;;6267439;28;20045;-69
2022/03/09 10:46:16;;;;;;;43.03;28.55;;;;;;;;;;6272870;28;20144;-70
2022/03/09 10:49:19;;;;;;;40.72;28.95;;;;;;;;;;6273187;28;20052;-70
2022/03/09 10:52:21;;;;;;;43.92;29.25;;;;;;;;;;6266153;28;20049;-70
2022/03/09 10:55:31;;;;;;;44.42;29.92;;;;;;;;;;6262960;28;20088;-70
2022/03/09 10:58:39;;;;;;;43.33;28.40;;;;;;;;;;6259196;28;20048;-70
2022/03/09 11:01:43;;;;;;;40.95;29.55;;;;;;;;;;6254580;28;20154;-70
2022/03/09 11:04:44;;;;;;;;;;;;;;;;;;6258855;28;20202;-72
2022/03/09 11:07:47;;;;;;;44.95;31.98;;;;;;;;;;6266723;28;20004;-73
2022/03/09 11:10:49;;;;;;;54.95;42.67;;;;;;;;;;6270767;28;20546;-74
2022/03/09 11:13:51;;;;;;;61.50;47.42;;;;;;;;;;6266973;28;20056;-70
2022/03/09 11:16:57;;;;;;;47.22;36.42;;;;;;;;;;6267520;28;20115;-71
2022/03/09 11:19:59;;;;;;;42.75;31.75;;;;;;;;;;6276222;28;20424;-70
2022/03/09 11:23:00;;;;;;;43.22;31.02;;;;;;;;;;6278325;28;20552;-69
2022/03/09 11:26:04;;;;;;;43.05;31.30;;;;;;;;;;6270135;28;20054;-69
2022/03/09 11:29:08;;;;;;;44.83;30.90;;;;;;;;;;6269811;28;20186;-70
2022/03/09 11:32:14;;;;;;;45.03;31.60;;;;;;;;;;6264261;28;20050;-69
2022/03/09 11:35:35;;;;;;;41.63;31.88;;;;;;;;;;6263020;28;20049;-70
2022/03/09 11:38:41;;;;;;;43.50;32.72;;;;;;;;;;6257979;28;20046;-70
2022/03/09 11:41:42;;;;;;;40.88;30.38;;;;;;;;;;6255608;28;20050;-70
2022/03/09 11:44:44;;;;;;;41.35;29.98;;;;;;;;;;6254227;28;20045;-69
2022/03/09 11:47:57;;;;;;;43.40;30.98;;;;;;;;;;6261601;28;20049;-71
2022/03/09 11:51:12;;;;;;;44.47;31.53;;;;;;;;;;6261655;28;20929;-72
2022/03/09 11:54:13;;;;;;;47.85;33.17;;;;;;;;;;6279240;28;20474;-70
2022/03/09 11:57:16;;;;;;;44.88;31.45;;;;;;;;;;6281518;28;20041;-71
2022/03/09 12:00:18;;;;;;;42.03;31.63;;;;;;;;;;6274295;28;20073;-71
2022/03/09 12:03:39;;;;;;;47.90;30.08;;;;;;;;;;6267165;28;20559;-70
2022/03/09 12:06:41;;;;;;;52.03;31.95;;;;;;;;;;6267775;28;20045;-70
2022/03/09 12:09:55;;;;;;;45.67;30.13;;;;;;;;;;6261995;28;20245;-71
2022/03/09 12:13:16;;;;;;;47.08;30.05;;;;;;;;;;6260316;28;20121;-70
2022/03/09 12:16:19;;;;;;;43.58;31.40;;;;;;;;;;6256399;28;20135;-71
2022/03/09 12:19:22;;;;;;;52.38;30.95;;;;;;;;;;6254086;28;20073;-70
2022/03/09 12:22:24;;;;;;;48.67;28.48;;;;;;;;;;6248907;28;20168;-72
2022/03/09 12:25:40;;;;;;;44.53;30.83;;;;;;;;;;6247563;28;20061;-70
2022/03/09 12:28:47;;;;;;;44.05;30.45;;;;;;;;;;6278244;28;20124;-70
2022/03/09 12:32:00;;;;;;;40.45;28.75;;;;;;;;;;6283158;28;20179;-70
2022/03/09 12:35:06;;;;;;;40.50;30.08;;;;;;;;;;6274287;28;20388;-69
2022/03/09 12:38:08;;;;;;;38.63;27.73;;;;;;;;;;6269023;28;20145;-70
2022/03/09 12:41:24;;;;;;;43.65;29.05;;;;;;;;;;6271781;28;20132;-70
2022/03/09 12:44:29;;;;;;;37.55;26.65;;;;;;;;;;6269080;28;20068;-71
2022/03/09 12:47:35;;;;;;;42.40;28.73;;;;;;;;;;6264602;28;20695;-70
2022/03/09 12:50:37;;;;;;;40.90;27.40;;;;;;;;;;6258679;28;20048;-70
2022/03/09 12:53:42;;;;;;;39.87;28.13;;;;;;;;;;6259725;28;20159;-70
2022/03/09 12:56:44;;;;;;;41.65;28.58;;;;;;;;;;6251588;28;20076;-71
2022/03/09 12:59:57;;;;;;;38.92;27.90;;;;;;;;;;6258321;28;20041;-69
2022/03/09 13:03:00;;;;;;;40.85;26.67;;;;;;;;;;6264485;28;20477;-69
2022/03/09 13:06:06;;;;;;;36.47;26.02;;;;;;;;;;6265360;28;20098;-70
2022/03/09 13:09:21;;;;;;;38.20;27.42;;;;;;;;;;6266738;28;20089;-70
2022/03/09 13:12:22;;;;;;;41.63;27.40;;;;;;;;;;6275154;28;20049;-70
2022/03/09 13:15:36;;;;;;;39.42;26.95;;;;;;;;;;6274954;28;20412;-69
2022/03/09 13:18:38;;;;;;;36.63;25.70;;;;;;;;;;6272109;28;20075;-70
2022/03/09 13:21:41;;;;;;;35.30;25.83;;;;;;;;;;6271179;28;20107;-69
2022/03/09 13:24:42;;;;;;;40.17;26.45;;;;;;;;;;6260713;28;20044;-69
2022/03/09 13:27:44;;;;;;;35.83;27.20;;;;;;;;;;6259376;28;20061;-69
2022/03/09 13:30:52;;;;;;;35.45;26.20;;;;;;;;;;6255519;28;20552;-70
2022/03/09 13:34:11;;;;;;;38.28;26.70;;;;;;;;;;6253100;28;20049;-69
2022/03/09 13:37:18;;;;;;;37.25;28.52;;;;;;;;;;6254300;28;20041;-70
2022/03/09 13:40:19;;;;;;;37.10;27.48;;;;;;;;;;6269677;28;20049;-70
2022/03/09 13:43:26;;;;;;;37.47;28.48;;;;;;;;;;6267116;28;20055;-69
2022/03/09 13:46:28;;;;;;;36.72;27.52;;;;;;;;;;6270072;28;20041;-70
2022/03/09 13:49:42;;;;;;;40.03;28.93;;;;;;;;;;6274997;28;20149;-69
2022/03/09 13:52:45;;;;;;;;;;;;;;;;;;6270655;28;20045;-69
2022/03/09 13:55:48;;;;;;;40.50;27.42;;;;;;;;;;6272880;28;20368;-69
2022/03/09 13:58:52;;;;;;;41.20;28.23;;;;;;;;;;6259293;28;20067;-70
2022/03/09 14:01:54;;;;;;;40.15;26.85;;;;;;;;;;6259238;28;20706;-71
2022/03/09 14:04:55;;;;;;;38.13;28.40;;;;;;;;;;6259955;28;20699;-70
2022/03/09 14:07:59;;;;;;;40.85;27.27;;;;;;;;;;6258670;28;20080;-70
2022/03/09 14:11:08;;;;;;;39.45;27.55;;;;;;;;;;6259942;28;20103;-69
2022/03/09 14:14:13;;;;;;;38.88;26.80;;;;;;;;;;6263823;28;20041;-70
2022/03/09 14:17:15;;;;;;;39.67;25.65;;;;;;;;;;6270357;28;20107;-67
2022/03/09 14:20:18;;;;;;;37.97;26.73;;;;;;;;;;6262740;28;20521;-68
2022/03/09 14:23:22;;;;;;;54.55;37.10;;;;;;;;;;6262039;28;20045;-69
2022/03/09 14:26:24;;;;;;;38.10;27.52;;;;;;;;;;6263817;28;20049;-68
2022/03/09 14:29:27;;;;;;;38.53;26.90;;;;;;;;;;6276830;28;20056;-71
2022/03/09 14:32:28;;;;;;;35.10;24.35;;;;;;;;;;6273303;28;20046;-72
2022/03/09 14:35:30;;;;;;;33.92;24.33;;;;;;;;;;6264916;28;20129;-71
2022/03/09 14:38:35;;;;;;;34.80;23.55;;;;;;;;;;6262144;28;20175;-71
2022/03/09 14:41:38;;;;;;;36.40;24.48;;;;;;;;;;6265084;28;20041;-71
2022/03/09 14:44:39;;;;;;;35.55;23.60;;;;;;;;;;6267085;28;20044;-72
2022/03/09 14:47:41;;;;;;;36.15;23.40;;;;;;;;;;6268028;28;20052;-72
2022/03/09 14:50:42;;;;;;;33.05;22.98;;;;;;;;;;6268925;28;20177;-71
2022/03/09 14:53:45;;;;;;;33.58;23.08;;;;;;;;;;6261538;28;20441;-69
2022/03/09 14:56:47;;;;;;;36.10;22.23;;;;;;;;;;6266247;28;20075;-71
2022/03/09 14:59:49;;;;;;;33.58;22.92;;;;;;;;;;6257425;28;20079;-70
2022/03/09 15:02:50;;;;;;;37.05;23.08;;;;;;;;;;6255527;28;20141;-71
2022/03/09 15:05:52;;;;;;;32.70;21.65;;;;;;;;;;6255774;28;20049;-70
2022/03/09 15:08:55;;;;;;;35.95;20.98;;;;;;;;;;6267319;28;20065;-71
2022/03/09 15:11:56;;;;;;;33.90;22.40;;;;;;;;;;6266782;28;20048;-72
2022/03/09 15:14:58;;;;;;;33.22;21.95;;;;;;;;;;6259477;28;20408;-71
2022/03/09 15:18:00;;;;;;;35.35;22.48;;;;;;;;;;6261431;28;20059;-71
2022/03/09 15:21:03;;;;;;;34.08;21.05;;;;;;;;;;6258479;28;20128;-72
2022/03/09 15:24:06;;;;;;;31.87;19.83;;;;;;;;;;6263339;28;20664;-72
2022/03/09 15:27:08;;;;;;;30.88;20.00;;;;;;;;;;6263021;28;20459;-73
2022/03/09 15:30:10;;;;;;;34.17;20.63;;;;;;;;;;6269456;28;20120;-72
2022/03/09 15:33:12;;;;;;;30.30;19.80;;;;;;;;;;6268868;28;20114;-73
2022/03/09 15:36:16;;;;;;;37.25;22.58;;;;;;;;;;6262550;28;20408;-73
2022/03/09 15:39:19;;;;;;;32.95;20.17;;;;;;;;;;6259985;28;20053;-74
2022/03/09 15:42:20;;;;;;;32.83;21.13;;;;;;;;;;6257664;28;20080;-74
2022/03/09 15:45:23;;;;;;;32.03;21.30;;;;;;;;;;6255440;28;20050;-74
2022/03/09 15:48:24;;;;;;;33.47;22.50;;;;;;;;;;6262973;28;20076;-75
2022/03/09 15:51:26;;;;;;;46.42;23.50;;;;;;;;;;6265587;28;20279;-74
2022/03/09 15:54:29;;;;;;;35.08;22.80;;;;;;;;;;6262189;28;20535;-73
2022/03/09 15:57:31;;;;;;;33.42;22.33;;;;;;;;;;6271756;28;20067;-72
2022/03/09 16:00:33;;;;;;;58.95;39.58;;;;;;;;;;6272900;28;20110;-72
2022/03/09 16:03:36;;;;;;;34.28;23.60;;;;;;;;;;6269415;28;20076;-71
2022/03/09 16:06:37;;;;;;;32.88;22.23;;;;;;;;;;6271590;28;20046;-72
2022/03/09 16:09:41;;;;;;;33.58;20.92;;;;;;;;;;6271296;28;20145;-72
2022/03/09 16:12:43;;;;;;;32.85;21.80;;;;;;;;;;6264606;28;20072;-72
2022/03/09 16:15:44;;;;;;;33.03;21.10;;;;;;;;;;6260046;28;20169;-73
2022/03/09 16:18:47;;;;;;;36.88;22.30;;;;;;;;;;6254972;28;20061;-72
2022/03/09 16:21:49;;;;;;;29.17;20.70;;;;;;;;;;6259578;28;20345;-72
2022/03/09 16:24:52;;;;;;;38.33;22.27;;;;;;;;;;6253597;28;20066;-71
2022/03/09 16:27:56;;;;;;;31.98;21.80;;;;;;;;;;6260080;28;20045;-71
2022/03/09 16:30:58;;;;;;;;;;;;;;;;;;6266048;28;20064;-71
2022/03/09 16:33:59;;;;;;;32.95;19.48;;;;;;;;;;6268540;28;20542;-72
2022/03/09 16:37:01;;;;;;;29.50;18.45;;;;;;;;;;6272567;28;20136;-71
2022/03/09 16:40:05;;;;;;;37.70;20.90;;;;;;;;;;6265633;28;20139;-71
2022/03/09 16:43:08;;;;;;;27.40;18.35;;;;;;;;;;6266002;28;20516;-72
2022/03/09 16:46:13;;;;;;;29.15;18.33;;;;;;;;;;6267505;28;20532;-72
2022/03/09 16:49:15;;;;;;;31.45;20.02;;;;;;;;;;6267556;28;20492;-72
2022/03/09 16:52:16;;;;;;;31.60;19.77;;;;;;;;;;6262350;28;20053;-72
2022/03/09 16:55:19;;;;;;;33.50;20.05;;;;;;;;;;6257398;28;20068;-73
2022/03/09 16:58:21;;;;;;;29.40;19.00;;;;;;;;;;6258532;28;20073;-72
2022/03/09 17:01:22;;;;;;;32.03;19.63;;;;;;;;;;6256133;28;20089;-72
2022/03/09 17:04:24;;;;;;;30.92;19.13;;;;;;;;;;6250893;28;20042;-72
2022/03/09 17:07:26;;;;;;;33.58;18.05;;;;;;;;;;6268686;28;20106;-72
2022/03/09 17:10:29;;;;;;;31.45;18.08;;;;;;;;;;6279092;28;20046;-72
2022/03/09 17:13:31;;;;;;;32.00;17.92;;;;;;;;;;6273343;28;20064;-72
2022/03/09 17:16:33;;;;;;;28.48;17.23;;;;;;;;;;6272759;28;20071;-72
2022/03/09 17:19:34;;;;;;;31.40;18.02;;;;;;;;;;6270732;28;20109;-72
2022/03/09 17:22:36;;;;;;;30.73;18.23;;;;;;;;;;6267056;28;20174;-72
2022/03/09 17:25:40;;;;;;;28.75;17.50;;;;;;;;;;6265936;28;20527;-72
2022/03/09 17:28:41;;;;;;;31.10;18.50;;;;;;;;;;6262216;28;20096;-71
2022/03/09 17:31:43;;;;;;;35.60;18.88;;;;;;;;;;6262014;28;20124;-72
2022/03/09 17:34:44;;;;;;;31.35;19.13;;;;;;;;;;6258277;28;20193;-72
2022/03/09 17:37:46;;;;;;;34.70;18.95;;;;;;;;;;6255613;28;20064;-72
2022/03/09 17:40:49;;;;;;;34.97;20.98;;;;;;;;;;6260738;28;20137;-72
2022/03/09 17:43:51;;;;;;;31.00;18.92;;;;;;;;;;6265033;28;20070;-71
2022/03/09 17:46:52;;;;;;;37.15;19.92;;;;;;;;;;6270772;28;20052;-72